createdAt,value
2023-04-01T00:19:51.981Z,8.79
2023-04-01T00:49:51.844Z,8.77
2023-04-01T01:19:51.721Z,8.7
2023-04-01T01:49:51.621Z,8.59
2023-04-01T02:19:51.439Z,8.68
2023-04-01T02:49:51.368Z,8.57
2023-04-01T03:19:51.228Z,8.48
2023-04-01T03:49:51.131Z,8.41
2023-04-01T04:19:51.024Z,8.4
2023-04-01T04:49:50.878Z,8.45
2023-04-01T05:19:50.753Z,8.54
2023-04-01T05:49:50.551Z,8.57
2023-04-01T06:19:50.443Z,8.7
2023-04-01T07:19:50.283Z,8.77
2023-04-01T07:49:50.181Z,8.9
2023-04-01T08:19:50.039Z,9.09
2023-04-01T08:49:49.915Z,9.02
2023-04-01T09:19:49.789Z,9.15
2023-04-01T09:49:49.642Z,9.18
2023-04-01T10:02:37.722Z,9.51
2023-04-01T10:19:49.462Z,9.6
2023-04-01T10:49:49.351Z,9.86
2023-04-01T11:19:49.243Z,9.65
2023-04-01T11:49:49.161Z,9.77
2023-04-01T12:19:49.058Z,9.83
2023-04-01T12:45:37.341Z,10.14
2023-04-01T12:49:48.976Z,10.16
2023-04-01T13:19:57.863Z,10.19
2023-04-01T13:35:37.113Z,9.88
2023-04-01T13:49:48.669Z,9.74
2023-04-01T14:19:48.606Z,9.63
2023-04-01T14:49:48.487Z,9.54
2023-04-01T15:19:48.466Z,9.71
2023-04-01T15:49:48.391Z,9.86
2023-04-01T16:19:48.551Z,9.69
2023-04-01T16:49:48.189Z,9.49
2023-04-01T17:19:48.101Z,9.47
2023-04-01T17:49:47.941Z,9.43
2023-04-01T18:19:47.879Z,9.37
2023-04-01T18:49:47.646Z,9.29
2023-04-01T19:19:47.427Z,9.21
2023-04-01T19:49:47.312Z,9.26
2023-04-01T20:06:35.852Z,8.95
2023-04-01T20:19:47.110Z,8.73
2023-04-01T20:49:46.970Z,8.48
2023-04-01T21:19:46.881Z,8.2
2023-04-01T21:36:35.556Z,7.87
2023-04-01T21:49:46.742Z,7.7
2023-04-01T22:06:35.429Z,7.37
2023-04-01T22:19:46.620Z,7.18
2023-04-01T22:46:35.282Z,6.87
2023-04-01T22:49:46.501Z,6.84
2023-04-01T23:19:46.364Z,6.58
2023-04-01T23:49:46.265Z,6.33
